Time;durP1;ratioP1;P1;durP2;ratioP2;P2;SDS_P1;SDS_P2;PMS_P1;PMS_P2;Temp;Humidity;BMP_temperature;BMP_pressure;BME280_temperature;BME280_humidity;BME280_pressure;Samples;Min_cycle;Max_cycle;Signal;HPM_P1;HPM_P2
2023/05/25 00:02:23;;;;;;;18.52;6.20;;;11.90;99.90;;;;;;7595747;19;20021;-72
2023/05/25 00:04:57;;;;;;;17.42;6.68;;;11.90;99.90;;;;;;7602529;19;20074;-75
2023/05/25 00:07:29;;;;;;;14.20;6.22;;;11.90;99.90;;;;;;7597144;19;20992;-72
2023/05/25 00:10:01;;;;;;;13.65;6.47;;;11.80;99.90;;;;;;7601747;19;20026;-74
2023/05/25 00:12:35;;;;;;;15.80;6.55;;;11.80;99.90;;;;;;7596677;19;20029;-74
2023/05/25 00:15:11;;;;;;;21.92;6.82;;;11.70;99.90;;;;;;7596532;19;20015;-73
2023/05/25 00:17:47;;;;;;;12.30;6.80;;;11.70;99.90;;;;;;7601709;19;20090;-75
2023/05/25 00:20:20;;;;;;;22.20;6.57;;;11.70;99.90;;;;;;7591287;19;20026;-73
2023/05/25 00:22:54;;;;;;;13.88;6.63;;;11.70;99.90;;;;;;7600407;19;20071;-73
2023/05/25 00:25:28;;;;;;;15.48;6.63;;;11.70;99.90;;;;;;7596885;19;20019;-72
2023/05/25 00:28:03;;;;;;;18.23;6.57;;;11.70;99.90;;;;;;7597535;19;20475;-74
2023/05/25 00:30:35;;;;;;;14.52;6.28;;;11.70;99.90;;;;;;7599853;19;20015;-72
2023/05/25 00:33:09;;;;;;;16.00;6.50;;;11.70;99.90;;;;;;7597901;19;20015;-74
2023/05/25 00:35:43;;;;;;;17.80;6.60;;;11.60;99.90;;;;;;7588118;19;21650;-73
2023/05/25 00:38:17;;;;;;;16.38;6.80;;;11.60;99.90;;;;;;7576932;19;20022;-73
2023/05/25 00:40:53;;;;;;;;;;;11.60;99.90;;;;;;7600808;19;20014;-73
2023/05/25 00:43:26;;;;;;;17.20;6.45;;;11.60;99.90;;;;;;7590513;19;19919;-75
2023/05/25 00:45:58;;;;;;;20.65;7.20;;;11.60;99.90;;;;;;7599637;19;20598;-74
2023/05/25 00:48:31;;;;;;;20.17;6.88;;;11.60;99.90;;;;;;7581751;19;20015;-73
2023/05/25 00:51:03;;;;;;;17.23;6.80;;;11.60;99.90;;;;;;7589847;19;20462;-72
2023/05/25 00:53:36;;;;;;;14.55;6.88;;;11.60;99.90;;;;;;7595492;19;20010;-74
2023/05/25 00:56:21;;;;;;;16.83;6.57;;;11.60;99.90;;;;;;7592123;19;20101;-75
2023/05/25 00:58:57;;;;;;;19.48;6.72;;;11.60;99.90;;;;;;7596909;19;20452;-73
2023/05/25 01:01:38;;;;;;;12.95;6.57;;;11.60;99.90;;;;;;7584680;19;22580;-72
2023/05/25 01:04:14;;;;;;;14.85;6.68;;;11.60;99.90;;;;;;7584687;19;20018;-73
2023/05/25 01:06:49;;;;;;;17.60;8.18;;;11.60;99.90;;;;;;7595874;19;20014;-74
2023/05/25 01:09:23;;;;;;;17.20;7.30;;;11.50;99.90;;;;;;7593153;19;20049;-74
2023/05/25 01:11:56;;;;;;;18.45;7.07;;;11.50;99.90;;;;;;7597724;19;20052;-73
2023/05/25 01:14:30;;;;;;;20.85;6.65;;;11.50;99.90;;;;;;7588973;19;20044;-73
2023/05/25 01:17:03;;;;;;;18.98;7.20;;;11.50;99.90;;;;;;7591315;19;20034;-72
2023/05/25 01:19:39;;;;;;;19.27;7.90;;;11.50;99.90;;;;;;7593196;19;20061;-73
2023/05/25 01:22:23;;;;;;;17.10;7.72;;;11.60;99.90;;;;;;7591304;19;20279;-74
2023/05/25 01:25:06;;;;;;;11.85;6.90;;;11.60;99.90;;;;;;7591437;19;20014;-72
2023/05/25 01:27:44;;;;;;;21.10;7.45;;;11.60;99.90;;;;;;7592232;19;20023;-74
2023/05/25 01:30:18;;;;;;;18.80;6.95;;;11.50;99.90;;;;;;7596289;19;20049;-72
2023/05/25 01:32:52;;;;;;;17.63;7.78;;;11.60;99.90;;;;;;7583433;19;20046;-74
2023/05/25 01:35:27;;;;;;;15.98;7.72;;;11.60;99.90;;;;;;7590081;19;20087;-73
2023/05/25 01:38:00;;;;;;;17.15;8.48;;;11.50;99.90;;;;;;7594993;19;20018;-75
2023/05/25 01:40:33;;;;;;;16.65;8.65;;;11.50;99.90;;;;;;7593138;19;20018;-73
2023/05/25 01:43:05;;;;;;;18.48;9.02;;;11.50;99.90;;;;;;7590720;19;20408;-74
2023/05/25 01:45:37;;;;;;;25.17;9.18;;;11.60;99.90;;;;;;7593332;19;20584;-72
2023/05/25 01:48:22;;;;;;;;;;;11.50;99.90;;;;;;7591427;19;20022;-71
2023/05/25 01:50:59;;;;;;;16.93;9.30;;;11.50;99.90;;;;;;7596382;19;19910;-74
2023/05/25 01:53:40;;;;;;;20.42;9.98;;;11.50;99.90;;;;;;7593861;19;20394;-72
2023/05/25 01:56:13;;;;;;;20.63;10.63;;;11.50;99.90;;;;;;7571619;19;22353;-72
2023/05/25 01:58:49;;;;;;;20.77;10.02;;;11.50;99.90;;;;;;7579477;19;20011;-74
2023/05/25 02:01:22;;;;;;;18.48;10.65;;;11.50;99.90;;;;;;7589050;19;20018;-74
2023/05/25 02:03:56;;;;;;;20.42;10.75;;;11.50;99.90;;;;;;7585634;19;20018;-72
2023/05/25 02:06:29;;;;;;;22.42;10.93;;;11.50;99.90;;;;;;7589390;19;20019;-73
2023/05/25 02:09:05;;;;;;;20.25;10.48;;;11.60;99.90;;;;;;7584191;19;20014;-73
2023/05/25 02:11:39;;;;;;;25.58;12.27;;;11.60;99.90;;;;;;7589970;19;20027;-72
2023/05/25 02:14:12;;;;;;;28.13;11.35;;;11.60;99.90;;;;;;7596626;19;20089;-73
2023/05/25 02:16:47;;;;;;;22.80;10.65;;;11.70;99.90;;;;;;7588458;19;20027;-72
2023/05/25 02:19:20;;;;;;;19.63;11.43;;;11.60;99.90;;;;;;7567919;19;20056;-72
2023/05/25 02:21:52;;;;;;;27.00;12.10;;;11.60;99.90;;;;;;7588541;19;20029;-74
2023/05/25 02:24:27;;;;;;;24.98;13.30;;;11.60;99.90;;;;;;7582362;19;20025;-73
2023/05/25 02:27:00;;;;;;;25.33;12.63;;;11.60;99.90;;;;;;7566429;19;20086;-72
2023/05/25 02:29:33;;;;;;;27.88;14.68;;;11.60;99.90;;;;;;7574809;19;20985;-74
2023/05/25 02:32:05;;;;;;;20.30;12.73;;;11.70;99.90;;;;;;7592266;19;20598;-73
2023/05/25 02:34:37;;;;;;;26.27;14.82;;;11.70;99.90;;;;;;7582990;19;20457;-74
2023/05/25 02:37:11;;;;;;;28.75;15.60;;;11.70;99.90;;;;;;7599877;19;20363;-72
2023/05/25 02:39:43;;;;;;;31.10;15.13;;;11.70;99.90;;;;;;7599644;19;20013;-72
2023/05/25 02:42:16;;;;;;;29.35;16.38;;;11.70;99.90;;;;;;7602174;19;20022;-73
2023/05/25 02:44:48;;;;;;;31.20;15.68;;;11.70;99.90;;;;;;7589851;19;20015;-72
2023/05/25 02:47:21;;;;;;;29.43;16.50;;;11.70;99.90;;;;;;7597239;19;20679;-73
2023/05/25 02:49:54;;;;;;;32.65;17.40;;;11.70;99.90;;;;;;7601120;19;20018;-72
2023/05/25 02:52:29;;;;;;;31.40;16.20;;;11.70;99.90;;;;;;7596436;19;20093;-73
2023/05/25 02:55:03;;;;;;;34.17;17.85;;;11.80;99.90;;;;;;7595373;19;20018;-72
2023/05/25 02:57:40;;;;;;;34.55;18.17;;;11.70;99.90;;;;;;7589225;19;20018;-72
2023/05/25 03:00:16;;;;;;;35.80;18.77;;;11.80;99.90;;;;;;7596191;19;20048;-74
2023/05/25 03:02:48;;;;;;;34.28;19.52;;;11.80;99.90;;;;;;7587486;19;20018;-73
2023/05/25 03:05:22;;;;;;;40.65;20.45;;;11.70;99.90;;;;;;7590083;19;20018;-72
2023/05/25 03:07:55;;;;;;;41.80;20.58;;;11.70;99.90;;;;;;7596069;19;20014;-73
2023/05/25 03:10:27;;;;;;;35.83;20.92;;;11.70;99.90;;;;;;7588084;19;20010;-74
2023/05/25 03:13:00;;;;;;;39.28;21.98;;;11.80;99.90;;;;;;7579059;19;20093;-73
2023/05/25 03:15:32;;;;;;;37.07;21.87;;;11.80;99.90;;;;;;7586128;19;20030;-74
2023/05/25 03:18:05;;;;;;;38.35;21.23;;;11.80;99.90;;;;;;7587627;19;20021;-74
2023/05/25 03:20:42;;;;;;;37.65;20.90;;;11.80;99.90;;;;;;7590921;19;20021;-74
2023/05/25 03:23:15;;;;;;;44.40;22.02;;;11.80;99.90;;;;;;7587415;19;20018;-74
2023/05/25 03:25:49;;;;;;;34.38;20.80;;;11.80;99.90;;;;;;7583992;19;20026;-74
2023/05/25 03:28:22;;;;;;;40.47;20.98;;;11.80;99.90;;;;;;7569382;19;20045;-72
2023/05/25 03:30:55;;;;;;;39.38;20.73;;;11.80;99.90;;;;;;7592513;19;20434;-75
2023/05/25 03:33:28;;;;;;;37.60;20.63;;;11.90;99.90;;;;;;7585653;19;20019;-72
2023/05/25 03:36:00;;;;;;;39.13;20.38;;;11.90;99.90;;;;;;7584789;19;20018;-72
2023/05/25 03:38:32;;;;;;;35.70;19.60;;;11.90;99.90;;;;;;7590114;19;20025;-74
2023/05/25 03:41:05;;;;;;;38.55;19.95;;;11.90;99.90;;;;;;7589965;19;20106;-74
2023/05/25 03:43:39;;;;;;;32.25;19.27;;;11.90;99.90;;;;;;7576374;19;21519;-73
2023/05/25 03:46:13;;;;;;;;;;;11.80;99.90;;;;;;7605030;19;20034;-73
2023/05/25 03:48:47;;;;;;;;;;;11.90;99.90;;;;;;7566912;19;20170;-74
2023/05/25 03:51:19;;;;;;;35.05;18.80;;;11.90;99.90;;;;;;7590288;19;20325;-74
2023/05/25 03:53:52;;;;;;;34.00;18.00;;;11.90;99.90;;;;;;7586573;19;20018;-74
2023/05/25 03:56:25;;;;;;;34.05;18.58;;;11.90;99.90;;;;;;7577956;19;20019;-73
2023/05/25 03:58:59;;;;;;;29.75;17.25;;;11.90;99.90;;;;;;7575706;19;20103;-72
2023/05/25 04:01:31;;;;;;;34.92;18.70;;;11.90;99.90;;;;;;7572298;19;20098;-72
2023/05/25 04:04:04;;;;;;;30.42;16.65;;;11.90;99.90;;;;;;7575719;19;21167;-71
2023/05/25 04:06:37;;;;;;;;;;;12.00;99.90;;;;;;7561946;19;20014;-72
2023/05/25 04:09:11;;;;;;;33.97;17.92;;;12.00;99.90;;;;;;7572171;19;19926;-73
2023/05/25 04:11:44;;;;;;;32.55;17.52;;;12.00;99.90;;;;;;7558917;19;20019;-71
2023/05/25 04:14:19;;;;;;;27.23;15.95;;;11.90;99.90;;;;;;7583406;19;21205;-73
2023/05/25 04:16:52;;;;;;;32.35;17.42;;;12.00;99.90;;;;;;7566401;19;20022;-73
2023/05/25 04:19:25;;;;;;;31.13;16.90;;;12.00;99.90;;;;;;7562559;19;20003;-74
2023/05/25 04:21:57;;;;;;;31.67;17.40;;;12.00;99.90;;;;;;7579124;19;20287;-74
2023/05/25 04:24:31;;;;;;;30.20;17.27;;;12.00;99.90;;;;;;7569633;19;20018;-72
2023/05/25 04:27:04;;;;;;;32.97;17.17;;;12.10;99.90;;;;;;7556056;19;20015;-73
2023/05/25 04:29:37;;;;;;;34.75;17.30;;;12.10;99.90;;;;;;7557387;19;20011;-73
2023/05/25 04:32:45;;;;;;;27.35;16.77;;;12.10;99.90;;;;;;7552803;19;20645;-73
2023/05/25 04:35:39;;;;;;;30.02;17.98;;;12.20;99.90;;;;;;7585673;19;20706;-73
2023/05/25 04:38:16;;;;;;;34.65;18.25;;;12.20;99.90;;;;;;7576050;19;20021;-73
2023/05/25 04:40:48;;;;;;;35.50;17.33;;;12.20;99.90;;;;;;7582088;19;20063;-75
2023/05/25 04:43:20;;;;;;;28.08;16.05;;;12.30;99.90;;;;;;7576341;19;20770;-75
2023/05/25 04:45:53;;;;;;;30.45;17.42;;;12.30;99.90;;;;;;7558541;19;20101;-74
2023/05/25 04:48:31;;;;;;;27.08;16.55;;;12.30;99.90;;;;;;7579063;19;20010;-74
2023/05/25 04:51:03;;;;;;;32.75;17.27;;;12.40;99.90;;;;;;7566277;19;20026;-73
2023/05/25 04:53:37;;;;;;;29.55;17.48;;;12.30;99.90;;;;;;7576928;19;20016;-72
2023/05/25 04:56:09;;;;;;;34.10;17.52;;;12.40;99.90;;;;;;7553675;19;20014;-72
2023/05/25 04:58:42;;;;;;;32.50;17.60;;;12.40;99.90;;;;;;7543734;19;20011;-73
2023/05/25 05:01:15;;;;;;;34.08;18.02;;;12.30;99.90;;;;;;7549361;19;20015;-74
2023/05/25 05:03:48;;;;;;;33.47;17.50;;;12.40;99.90;;;;;;7538866;19;20025;-74
2023/05/25 05:06:21;;;;;;;30.52;19.83;;;12.40;99.90;;;;;;7566174;19;20508;-75
2023/05/25 05:08:53;;;;;;;37.15;19.60;;;12.40;99.90;;;;;;7579539;19;20014;-75
2023/05/25 05:11:29;;;;;;;36.63;20.10;;;12.40;99.90;;;;;;7577321;19;20048;-74
2023/05/25 05:14:02;;;;;;;40.13;18.83;;;12.50;99.90;;;;;;7572294;19;20025;-74
2023/05/25 05:16:36;;;;;;;31.65;18.42;;;12.50;99.90;;;;;;7571383;19;20026;-75
2023/05/25 05:19:08;;;;;;;35.53;19.95;;;12.60;99.90;;;;;;7554347;19;20027;-74
2023/05/25 05:21:41;;;;;;;37.58;19.55;;;12.60;99.90;;;;;;7539073;19;20067;-73
2023/05/25 05:24:14;;;;;;;37.15;17.05;;;12.60;99.90;;;;;;7565773;19;20022;-72
2023/05/25 05:26:46;;;;;;;30.45;18.90;;;12.70;99.90;;;;;;7513543;19;20094;-73
2023/05/25 05:29:37;;;;;;;36.80;19.50;;;12.60;99.90;;;;;;7561099;19;20006;-71
2023/05/25 05:32:10;;;;;;;34.55;20.60;;;12.70;99.90;;;;;;7571991;19;20014;-73
2023/05/25 05:34:42;;;;;;;37.65;22.08;;;12.70;99.90;;;;;;7562981;19;20523;-72
2023/05/25 05:37:27;;;;;;;40.33;21.85;;;12.70;99.90;;;;;;7589280;19;20024;-72
2023/05/25 05:39:59;;;;;;;34.90;19.83;;;12.70;99.90;;;;;;7594659;19;20695;-73
2023/05/25 05:42:31;;;;;;;34.25;20.00;;;12.70;99.90;;;;;;7569207;19;20022;-73
2023/05/25 05:45:08;;;;;;;38.58;19.80;;;12.70;99.90;;;;;;7588761;19;20018;-74
2023/05/25 05:47:40;;;;;;;39.47;20.85;;;12.70;99.90;;;;;;7577957;19;20046;-73
2023/05/25 05:50:13;;;;;;;36.50;20.60;;;12.70;99.90;;;;;;7572532;19;20051;-72
2023/05/25 05:52:46;;;;;;;37.38;20.98;;;12.70;99.90;;;;;;7586822;19;20018;-72
2023/05/25 05:55:19;;;;;;;33.35;19.65;;;12.80;99.90;;;;;;7596185;19;20010;-73
2023/05/25 05:57:54;;;;;;;32.88;20.60;;;12.80;99.90;;;;;;7596249;19;20763;-75
2023/05/25 06:00:26;;;;;;;36.88;21.83;;;12.80;99.90;;;;;;7602831;19;20018;-75
2023/05/25 06:02:59;;;;;;;32.60;20.30;;;12.80;99.90;;;;;;7593707;19;20125;-76
2023/05/25 06:05:33;;;;;;;40.38;20.98;;;12.80;99.90;;;;;;7599152;19;20054;-75
2023/05/25 06:08:08;;;;;;;35.20;22.27;;;12.70;99.90;;;;;;7599270;19;20031;-75
2023/05/25 06:10:41;;;;;;;36.97;20.58;;;12.70;99.90;;;;;;7603006;19;20022;-76
2023/05/25 06:13:13;;;;;;;36.08;20.83;;;12.70;99.90;;;;;;7605721;19;20014;-75
2023/05/25 06:15:46;;;;;;;36.47;21.77;;;12.70;99.90;;;;;;7601747;19;20274;-74
2023/05/25 06:18:24;;;;;;;40.15;21.23;;;12.70;99.90;;;;;;7606276;19;20686;-75
2023/05/25 06:21:00;;;;;;;34.40;20.30;;;12.70;99.90;;;;;;7602965;19;20010;-75
2023/05/25 06:23:32;;;;;;;35.60;20.92;;;12.70;99.90;;;;;;7607092;19;20025;-75
2023/05/25 06:26:05;;;;;;;36.45;21.50;;;12.70;99.90;;;;;;7604536;19;20025;-75
2023/05/25 06:28:38;;;;;;;34.92;20.92;;;12.80;99.90;;;;;;7607457;19;20110;-75
2023/05/25 06:31:11;;;;;;;;;;;12.80;99.90;;;;;;7607066;19;20019;-75
2023/05/25 06:33:43;;;;;;;36.90;21.15;;;12.80;99.90;;;;;;7604602;19;19915;-74
2023/05/25 06:36:16;;;;;;;35.65;20.90;;;12.80;99.90;;;;;;7601529;19;20015;-75
2023/05/25 06:38:49;;;;;;;39.75;21.48;;;12.80;99.90;;;;;;7602559;19;20025;-74
2023/05/25 06:41:21;;;;;;;32.70;19.60;;;12.80;99.90;;;;;;7608447;19;20101;-75
2023/05/25 06:43:53;;;;;;;30.50;20.10;;;12.90;99.90;;;;;;7608331;19;22248;-75
2023/05/25 06:46:33;;;;;;;34.15;20.88;;;12.90;99.90;;;;;;7607041;19;20026;-75
2023/05/25 06:49:05;;;;;;;34.88;19.52;;;12.90;99.90;;;;;;7607222;19;20074;-75
2023/05/25 06:51:38;;;;;;;36.35;21.05;;;12.90;99.90;;;;;;7603258;19;20037;-75
2023/05/25 06:54:12;;;;;;;37.63;21.10;;;12.90;99.90;;;;;;7609605;19;20042;-75
2023/05/25 06:56:45;;;;;;;39.60;20.38;;;12.90;99.90;;;;;;7608029;19;20018;-75
2023/05/25 06:59:17;;;;;;;33.72;20.85;;;13.00;99.90;;;;;;7610374;19;20045;-76
2023/05/25 07:01:50;;;;;;;35.05;20.23;;;13.00;99.90;;;;;;7604147;19;20014;-75
2023/05/25 07:04:22;;;;;;;35.45;21.08;;;13.00;99.90;;;;;;7607508;19;20011;-75
2023/05/25 07:06:54;;;;;;;34.08;20.38;;;13.00;99.90;;;;;;7606787;19;20015;-75
2023/05/25 07:09:27;;;;;;;34.95;20.02;;;13.10;99.90;;;;;;7611726;19;20033;-75
2023/05/25 07:11:59;;;;;;;32.03;20.08;;;13.10;99.90;;;;;;7603858;19;20046;-74
2023/05/25 07:14:33;;;;;;;42.00;21.83;;;13.20;99.90;;;;;;7605627;19;20882;-75
2023/05/25 07:17:06;;;;;;;34.65;20.02;;;13.20;99.90;;;;;;7606752;19;20014;-75
2023/05/25 07:19:41;;;;;;;31.83;20.02;;;13.20;99.90;;;;;;7607158;19;20038;-75
2023/05/25 07:22:15;;;;;;;35.05;20.17;;;13.20;99.90;;;;;;7603826;19;20026;-75
2023/05/25 07:24:48;;;;;;;33.67;20.27;;;13.20;99.90;;;;;;7607657;19;20018;-76
2023/05/25 07:27:21;;;;;;;38.28;21.55;;;13.30;99.90;;;;;;7610580;19;20014;-75
2023/05/25 07:29:53;;;;;;;30.10;19.08;;;13.30;99.90;;;;;;7604678;19;20504;-74
2023/05/25 07:32:25;;;;;;;32.80;19.60;;;13.30;99.90;;;;;;7607661;19;20090;-76
2023/05/25 07:34:57;;;;;;;34.20;19.70;;;13.30;99.90;;;;;;7604519;19;20030;-74
2023/05/25 07:37:30;;;;;;;31.67;18.73;;;13.30;99.90;;;;;;7605721;19;20019;-75
2023/05/25 07:40:02;;;;;;;32.88;18.85;;;13.40;99.90;;;;;;7604454;19;20030;-75
2023/05/25 07:42:35;;;;;;;30.17;19.52;;;13.40;99.90;;;;;;7606241;19;20078;-75
2023/05/25 07:45:07;;;;;;;31.63;19.35;;;13.40;99.90;;;;;;7603731;19;20060;-75
2023/05/25 07:47:39;;;;;;;33.93;19.80;;;13.50;99.90;;;;;;7607217;19;20021;-75
2023/05/25 07:50:13;;;;;;;35.72;19.30;;;13.50;99.90;;;;;;7603780;19;20024;-74
2023/05/25 07:52:45;;;;;;;29.70;18.25;;;13.50;99.90;;;;;;7601602;19;20486;-75
2023/05/25 07:55:19;;;;;;;34.78;19.52;;;13.50;99.90;;;;;;7604166;19;20018;-75
2023/05/25 07:57:51;;;;;;;33.08;18.80;;;13.50;99.90;;;;;;7604356;19;20052;-75
2023/05/25 08:00:24;;;;;;;33.03;19.60;;;13.50;99.90;;;;;;7607862;19;20104;-75
2023/05/25 08:02:56;;;;;;;38.75;19.73;;;13.50;99.90;;;;;;7602800;19;21240;-75
2023/05/25 08:05:29;;;;;;;32.83;19.15;;;13.60;99.90;;;;;;7606693;19;20010;-75
2023/05/25 08:08:01;;;;;;;32.60;18.87;;;13.60;99.90;;;;;;7604070;19;20409;-76
2023/05/25 08:10:34;;;;;;;34.65;19.48;;;13.70;99.90;;;;;;7595620;19;20010;-76
2023/05/25 08:13:06;;;;;;;32.17;18.83;;;13.80;99.90;;;;;;7583546;19;20010;-75
2023/05/25 08:15:38;;;;;;;30.55;18.08;;;13.90;99.90;;;;;;7593262;19;20011;-77
2023/05/25 08:18:10;;;;;;;32.25;18.35;;;13.90;99.90;;;;;;7599134;19;20018;-76
2023/05/25 08:20:43;;;;;;;35.22;19.20;;;13.90;99.90;;;;;;7601732;19;20029;-76
2023/05/25 08:23:16;;;;;;;27.13;17.73;;;14.00;99.90;;;;;;7595715;19;20026;-76
2023/05/25 08:25:49;;;;;;;29.80;17.33;;;14.20;99.90;;;;;;7607900;19;20048;-76
2023/05/25 08:28:22;;;;;;;;;;;14.20;99.90;;;;;;7611597;19;20033;-76
2023/05/25 08:30:57;;;;;;;31.60;17.80;;;14.30;99.90;;;;;;7610943;19;19922;-75
2023/05/25 08:33:30;;;;;;;28.40;17.35;;;14.30;99.90;;;;;;7619096;19;21626;-76
2023/05/25 08:36:02;;;;;;;27.02;17.13;;;14.40;99.90;;;;;;7612913;19;20018;-76
2023/05/25 08:38:35;;;;;;;28.83;16.73;;;14.40;99.90;;;;;;7617102;19;20577;-77
2023/05/25 08:41:07;;;;;;;28.60;16.42;;;14.40;99.90;;;;;;7611395;19;20015;-76
2023/05/25 08:43:41;;;;;;;27.65;16.27;;;14.50;99.90;;;;;;7611709;19;20018;-75
2023/05/25 08:46:17;;;;;;;33.80;17.05;;;14.60;99.90;;;;;;7608603;19;20921;-76
2023/05/25 08:48:53;;;;;;;26.70;16.75;;;14.50;99.90;;;;;;7611604;19;20010;-75
2023/05/25 08:51:25;;;;;;;26.33;15.75;;;14.60;99.90;;;;;;7609908;19;20053;-75
2023/05/25 08:54:04;;;;;;;27.42;16.50;;;14.70;99.90;;;;;;7615706;19;20018;-75
2023/05/25 08:56:58;;;;;;;26.75;16.17;;;14.60;99.90;;;;;;7612697;19;20948;-75
2023/05/25 08:59:40;;;;;;;26.92;16.05;;;14.60;99.90;;;;;;7613003;19;20022;-76
2023/05/25 09:02:41;;;;;;;25.27;15.95;;;14.60;99.90;;;;;;7614475;19;20026;-75
2023/05/25 09:05:14;;;;;;;25.38;15.70;;;14.50;99.90;;;;;;7611850;19;20018;-75
2023/05/25 09:07:48;;;;;;;28.55;15.40;;;14.50;99.90;;;;;;7607277;19;20017;-75
2023/05/25 09:10:22;;;;;;;23.52;15.85;;;14.60;99.90;;;;;;7608745;19;20010;-75
2023/05/25 09:12:55;;;;;;;22.27;14.25;;;14.60;99.90;;;;;;7608280;19;20014;-75
2023/05/25 09:15:27;;;;;;;16.60;11.77;;;14.70;99.90;;;;;;7612405;19;20034;-75
2023/05/25 09:17:59;;;;;;;19.48;11.88;;;14.90;99.90;;;;;;7610314;19;20085;-75
2023/05/25 09:20:32;;;;;;;18.23;12.60;;;14.90;99.90;;;;;;7611372;19;20056;-75
2023/05/25 09:23:05;;;;;;;21.63;13.83;;;14.90;99.90;;;;;;7610773;19;20050;-75
2023/05/25 09:25:39;;;;;;;20.38;12.98;;;14.80;99.90;;;;;;7609248;19;20476;-74
2023/05/25 09:28:11;;;;;;;19.17;12.15;;;14.90;99.90;;;;;;7607780;19;20364;-75
2023/05/25 09:30:58;;;;;;;23.48;12.40;;;15.00;99.90;;;;;;7614773;19;20019;-74
2023/05/25 09:33:31;;;;;;;22.25;14.20;;;15.00;99.90;;;;;;7609713;19;20056;-71
2023/05/25 09:36:06;;;;;;;18.67;12.05;;;15.10;99.90;;;;;;7604582;19;20416;-73
2023/05/25 09:38:40;;;;;;;22.27;13.98;;;15.20;99.90;;;;;;7605050;19;20014;-73
2023/05/25 09:41:13;;;;;;;23.35;13.93;;;15.00;99.90;;;;;;7597690;19;20006;-73
2023/05/25 09:43:46;;;;;;;24.33;15.98;;;15.00;99.90;;;;;;7603171;19;20731;-74
2023/05/25 09:46:40;;;;;;;22.47;16.10;;;15.00;99.90;;;;;;7601594;19;20014;-73
2023/05/25 09:49:12;;;;;;;23.95;15.57;;;15.00;99.90;;;;;;7606985;19;20035;-72
2023/05/25 09:51:47;;;;;;;24.45;14.98;;;15.20;99.90;;;;;;7595719;19;20082;-73
2023/05/25 09:54:24;;;;;;;23.65;14.45;;;15.30;99.90;;;;;;7603910;19;20018;-73
2023/05/25 09:57:01;;;;;;;22.98;15.02;;;15.40;99.90;;;;;;7599064;19;20018;-74
2023/05/25 09:59:35;;;;;;;28.40;13.75;;;15.60;99.90;;;;;;7606433;19;20578;-73
2023/05/25 10:02:07;;;;;;;23.85;14.20;;;15.60;99.90;;;;;;7587860;19;20017;-72
2023/05/25 10:04:40;;;;;;;20.42;12.70;;;15.70;99.90;;;;;;7602441;19;20014;-76
2023/05/25 10:07:13;;;;;;;19.10;13.15;;;15.70;99.90;;;;;;7601439;19;20587;-75
2023/05/25 10:09:48;;;;;;;20.73;12.20;;;15.70;99.90;;;;;;7606154;19;20507;-72
2023/05/25 10:12:23;;;;;;;17.80;12.48;;;15.70;99.90;;;;;;7600100;19;20014;-73
2023/05/25 10:14:59;;;;;;;17.17;12.32;;;15.80;99.90;;;;;;7594708;19;20516;-74
2023/05/25 10:17:34;;;;;;;19.77;13.90;;;15.70;99.90;;;;;;7601224;19;20023;-73
2023/05/25 10:20:08;;;;;;;24.80;13.90;;;15.80;99.90;;;;;;7597772;19;20015;-73
2023/05/25 10:22:50;;;;;;;22.65;13.70;;;15.70;99.90;;;;;;7602279;19;20404;-70
2023/05/25 10:25:39;;;;;;;23.23;13.82;;;15.70;99.90;;;;;;7604129;19;20015;-72
2023/05/25 10:28:35;;;;;;;22.27;12.93;;;15.70;99.90;;;;;;7589876;19;20018;-73
2023/05/25 10:31:09;;;;;;;24.35;13.02;;;15.80;99.90;;;;;;7559211;19;20017;-71
2023/05/25 10:33:43;;;;;;;20.92;13.27;;;15.90;99.90;;;;;;7571466;19;20078;-72
2023/05/25 10:36:24;;;;;;;19.35;13.55;;;16.00;99.90;;;;;;7566044;19;20026;-73
2023/05/25 10:38:57;;;;;;;18.48;12.15;;;16.00;99.90;;;;;;7562942;19;20026;-71
2023/05/25 10:41:29;;;;;;;18.83;12.85;;;16.00;99.90;;;;;;7565371;19;20018;-73
2023/05/25 10:44:02;;;;;;;21.10;14.27;;;16.00;99.90;;;;;;7541997;19;21046;-73
2023/05/25 10:46:35;;;;;;;17.98;12.60;;;16.10;99.90;;;;;;7589684;19;20018;-72
2023/05/25 10:49:09;;;;;;;16.65;12.40;;;16.00;99.90;;;;;;7596899;19;20011;-71
2023/05/25 10:51:42;;;;;;;19.60;12.73;;;16.00;99.90;;;;;;7565496;19;20404;-73
2023/05/25 10:54:14;;;;;;;20.25;13.55;;;16.10;99.90;;;;;;7591370;19;20580;-72
2023/05/25 10:57:16;;;;;;;22.27;12.95;;;16.10;99.90;;;;;;7606633;19;20018;-72
2023/05/25 10:59:58;;;;;;;19.30;11.98;;;16.10;99.90;;;;;;7603652;19;20018;-72
2023/05/25 11:02:54;;;;;;;16.60;11.98;;;16.40;99.90;;;;;;7608089;19;20098;-72
2023/05/25 11:05:31;;;;;;;17.65;11.00;;;16.40;99.90;;;;;;7602899;19;20010;-72
2023/05/25 11:08:07;;;;;;;16.95;12.00;;;16.50;99.90;;;;;;7599229;19;20061;-72
2023/05/25 11:10:48;;;;;;;16.58;11.82;;;16.40;99.90;;;;;;7605786;19;20563;-72
2023/05/25 11:13:30;;;;;;;18.80;11.48;;;16.30;99.90;;;;;;7598618;19;20996;-73
2023/05/25 11:16:29;;;;;;;17.67;11.63;;;16.40;99.90;;;;;;7601408;19;20033;-73
2023/05/25 11:19:02;;;;;;;17.98;12.13;;;16.50;99.90;;;;;;7603130;19;20014;-71
2023/05/25 11:21:42;;;;;;;16.70;11.60;;;16.50;99.90;;;;;;7600539;19;20057;-73
2023/05/25 11:24:16;;;;;;;16.50;12.20;;;16.60;99.90;;;;;;7599787;19;20022;-71
2023/05/25 11:26:54;;;;;;;17.80;12.73;;;16.70;99.90;;;;;;7605302;19;20015;-73
2023/05/25 11:29:30;;;;;;;17.58;12.48;;;16.80;99.90;;;;;;7601537;19;20512;-72
2023/05/25 11:32:03;;;;;;;17.08;12.35;;;16.90;99.90;;;;;;7598477;19;20512;-73
2023/05/25 11:34:35;;;;;;;20.05;13.02;;;16.90;99.90;;;;;;7606105;19;21341;-73
2023/05/25 11:37:08;;;;;;;18.95;12.98;;;17.00;99.90;;;;;;7600916;19;20052;-73
2023/05/25 11:39:47;;;;;;;18.40;12.18;;;16.90;99.90;;;;;;7605777;19;20014;-71
2023/05/25 11:42:21;;;;;;;17.65;12.43;;;17.00;99.90;;;;;;7582837;19;22210;-72
2023/05/25 11:44:54;;;;;;;17.88;12.63;;;17.00;99.90;;;;;;7599922;19;20014;-73
2023/05/25 11:47:28;;;;;;;18.55;13.00;;;17.30;99.90;;;;;;7571749;19;20010;-72
2023/05/25 11:50:03;;;;;;;18.25;11.88;;;17.40;99.90;;;;;;7565276;19;20022;-73
2023/05/25 11:52:35;;;;;;;18.30;11.13;;;17.80;99.90;;;;;;7571388;19;20553;-73
2023/05/25 11:55:14;;;;;;;17.15;11.95;;;18.20;99.90;;;;;;7578527;19;20026;-72
2023/05/25 11:57:53;;;;;;;12.77;10.60;;;18.30;99.90;;;;;;7586193;19;20022;-72
2023/05/25 12:00:27;;;;;;;17.20;12.25;;;18.50;99.90;;;;;;7580355;19;20046;-73
2023/05/25 12:02:59;;;;;;;15.50;11.95;;;18.50;99.90;;;;;;7554312;19;20022;-72
2023/05/25 12:05:38;;;;;;;16.45;11.75;;;18.50;99.90;;;;;;7580755;19;20653;-73
2023/05/25 12:08:11;;;;;;;21.27;11.35;;;18.60;99.90;;;;;;7595325;19;20030;-73
2023/05/25 12:10:50;;;;;;;16.38;12.43;;;18.50;99.90;;;;;;7571994;19;20794;-72
2023/05/25 12:13:23;;;;;;;17.00;12.23;;;18.40;99.90;;;;;;7591571;19;20417;-72
2023/05/25 12:15:59;;;;;;;15.85;10.75;;;18.20;99.90;;;;;;7600886;19;20060;-74
2023/05/25 12:18:32;;;;;;;16.90;11.40;;;18.30;99.90;;;;;;7599968;19;20374;-72
2023/05/25 12:21:07;;;;;;;13.02;10.70;;;18.40;99.90;;;;;;7593245;19;20102;-74
2023/05/25 12:23:39;;;;;;;15.73;10.50;;;18.60;99.90;;;;;;7579818;19;20022;-72
2023/05/25 12:26:15;;;;;;;14.25;9.75;;;18.80;99.90;;;;;;7585283;19;20018;-73
2023/05/25 12:29:01;;;;;;;16.55;10.68;;;19.10;99.90;;;;;;7591872;19;20021;-73
2023/05/25 12:31:37;;;;;;;13.45;10.65;;;19.60;99.90;;;;;;7583177;19;20509;-74
2023/05/25 12:34:17;;;;;;;15.88;10.40;;;20.10;99.70;;;;;;7587796;19;21135;-74
2023/05/25 12:36:51;;;;;;;12.02;8.77;;;20.50;97.50;;;;;;7590644;19;21358;-72
2023/05/25 12:39:29;;;;;;;14.00;9.00;;;20.90;96.90;;;;;;7585237;19;20540;-74
2023/05/25 12:42:02;;;;;;;9.93;8.68;;;21.30;94.70;;;;;;7586195;19;20014;-73
2023/05/25 12:44:36;;;;;;;13.55;8.85;;;21.60;93.60;;;;;;7591732;19;20060;-73
2023/05/25 12:47:14;;;;;;;12.52;8.90;;;22.00;92.60;;;;;;7588884;19;20015;-74
2023/05/25 12:49:50;;;;;;;12.30;8.95;;;22.20;90.60;;;;;;7602445;19;20590;-73
2023/05/25 12:52:35;;;;;;;11.45;9.13;;;22.30;88.70;;;;;;7574581;19;20018;-74
2023/05/25 12:55:21;;;;;;;10.63;8.40;;;22.50;87.60;;;;;;7576171;19;20056;-73
2023/05/25 12:58:01;;;;;;;15.18;8.35;;;22.70;85.80;;;;;;7600820;19;20018;-72
2023/05/25 13:00:35;;;;;;;11.35;8.60;;;22.90;87.70;;;;;;7577820;19;20018;-74
2023/05/25 13:03:07;;;;;;;11.93;7.90;;;23.00;85.00;;;;;;7598117;19;20022;-72
2023/05/25 13:05:40;;;;;;;10.93;8.63;;;22.70;85.90;;;;;;7598498;19;20373;-72
2023/05/25 13:08:12;;;;;;;13.93;9.53;;;22.70;86.10;;;;;;7602325;19;20029;-71
2023/05/25 13:10:50;;;;;;;12.77;9.80;;;22.70;85.40;;;;;;7600418;19;20018;-73